Auburn, WV

7:22 PM EST on January 25, 2015 (GMT -0500)
W8PY @ Harmony | Change Station
CLOSE
Current Station
Personal Weather Station
Location: West Union, WV
Elevation: 852 ft
Nearby Weather Stations

Elev 852 ft 39.17 °N, 80.82 °W | Updated 3 minutes ago

Overcast
Overcast
36.1 °F
Feels Like 36 °F
N
0.0
Wind Variable Wind from SW
Gusts 0.0 mph

Today
High -- | Low -- °F
--% Chance of Precip.
Yesterday
High -- | Low -- °F
Precip. -- in
7:35 AM 5:36 PM
Waxing Crescent, 37% visible
Pressure 29.72 in
Visibility 10.0 miles
Clouds Scattered Clouds 11000 ft
Windchill 36 °F
Dew Point 34 °F
Humidity 93%
Rainfall 0.05 in
Snow Depth Not available.
UV 0 out of 12
Pollen .10 out of 12
Air Quality Not available.
Flu Activity Not available.
METAR KW22 260015Z AUTO 00000KT 10SM SCT110 03/01 A2972 RMK AO2

More Conditions Fewer Conditions

Pressure 29.72 in
Visibility 10.0 miles
Clouds Scattered Clouds 11000 ft
Windchill 36 °F
Dew Point 34 °F
Humidity 93%
Rainfall 0.05 in
Snow Depth Not available.
UV 0 out of 12
Pollen .10 out of 12
Air Quality Not available.
Flu Activity Not available.
METAR KW22 260015Z AUTO 00000KT 10SM SCT110 03/01 A2972 RMK AO2

More Conditions Fewer Conditions

10-Day Weather Forecast

Almanac

Astronomy

Jan. 25, 2015 Rise Set
Actual Time
Civil Twilight
Nautical Twilight
Astronomical Twilight
Moon
Length of Visible Light
Length of Day
Tomorrow will be .
, % of the Moon is Illuminated

Today's Extremes

State Highs State Lows

Community

WunderPhotos

Upload Photos

1,790,013 photos uploaded!

WunderBlogs® & News

Nearby

Air Quality

  Air Quality AQ Index Pollutant
Not available.

Snow Depth

Station Depth Elevation

Earthquake Activity

City Distance Mag. Time & Date
Minimum magnitude displayed is 2.5.

Coastal Water Temperatures

Place Temperature

Nearby Weather Stations